Time;durP1;ratioP1;P1;durP2;ratioP2;P2;SDS_P1;SDS_P2;PMS_P1;PMS_P2;Temp;Humidity;BMP_temperature;BMP_pressure;BME280_temperature;BME280_humidity;BME280_pressure;Samples;Min_cycle;Max_cycle;Signal;HPM_P1;HPM_P2
2020/12/13 00:01:45;;;;;;;35.25;27.30;;;;;;;4.79;97.06;99674.00;5077447;28;20391;-77
2020/12/13 00:04:50;;;;;;;33.40;27.45;;;;;;;4.74;96.85;99675.34;5077419;28;20059;-78
2020/12/13 00:07:54;;;;;;;31.67;26.30;;;;;;;4.68;96.68;99673.13;5077326;28;20043;-77
2020/12/13 00:10:58;;;;;;;34.38;24.73;;;;;;;4.68;96.66;99667.81;5077305;28;20510;-78
2020/12/13 00:14:03;;;;;;;31.58;25.08;;;;;;;4.67;96.39;99677.59;5065170;28;20059;-78
2020/12/13 00:17:07;;;;;;;34.10;26.38;;;;;;;4.59;96.34;99675.50;5076859;28;20055;-78
2020/12/13 00:20:12;;;;;;;29.13;24.50;;;;;;;4.57;96.11;99689.84;5077133;28;20055;-78
2020/12/13 00:23:16;;;;;;;33.15;25.85;;;;;;;4.46;96.15;99679.19;5076996;28;20059;-78
2020/12/13 00:26:21;;;;;;;32.72;25.77;;;;;;;4.44;96.17;99676.63;5077287;28;20043;-78
2020/12/13 00:29:25;;;;;;;34.92;24.73;;;;;;;4.40;96.15;99684.94;5076957;28;20051;-78
2020/12/13 00:32:31;;;;;;;30.73;24.30;;;;;;;4.43;96.15;99690.88;5076850;28;20359;-78
2020/12/13 00:35:36;;;;;;;29.83;24.88;;;;;;;4.31;95.93;99685.63;5077089;28;20059;-79
2020/12/13 00:38:40;;;;;;;26.90;22.48;;;;;;;4.30;95.72;99684.75;5064563;28;20055;-77
2020/12/13 00:41:52;;;;;;;28.00;21.58;;;;;;;4.22;95.72;99696.91;5076598;28;20055;-76
2020/12/13 00:44:56;;;;;;;26.88;21.00;;;;;;;4.14;95.47;99686.84;5053339;28;20158;-79
2020/12/13 00:48:00;;;;;;;26.02;20.67;;;;;;;4.14;95.77;99694.81;5076671;28;20048;-79
2020/12/13 00:51:05;;;;;;;22.92;18.17;;;;;;;4.10;95.30;99688.00;5064515;28;20048;-76
2020/12/13 00:54:09;;;;;;;24.63;19.25;;;;;;;3.97;95.65;99697.81;5076294;28;20051;-77
2020/12/13 00:57:14;;;;;;;23.70;19.58;;;;;;;3.98;95.77;99691.53;5063883;28;20051;-76
2020/12/13 01:00:19;;;;;;;23.92;19.88;;;;;;;3.92;95.75;99705.28;5075845;28;20071;-78
2020/12/13 01:03:23;;;;;;;22.48;18.88;;;;;;;3.93;95.70;99712.25;5075950;28;20051;-76
2020/12/13 01:06:28;;;;;;;24.38;20.20;;;;;;;3.88;95.75;99703.78;5063535;28;20051;-79
2020/12/13 01:09:32;;;;;;;26.30;21.05;;;;;;;3.90;96.23;99708.00;5076434;28;20056;-78
2020/12/13 01:12:36;;;;;;;24.80;21.30;;;;;;;3.82;96.28;99705.06;5076445;28;20118;-78
2020/12/13 01:15:41;;;;;;;26.38;21.42;;;;;;;3.80;96.44;99704.31;5075905;28;20513;-79
2020/12/13 01:18:45;;;;;;;25.08;21.10;;;;;;;3.86;96.60;99718.97;5075859;28;20048;-78
2020/12/13 01:21:50;;;;;;;26.08;20.80;;;;;;;3.80;96.61;99727.38;5076023;28;20055;-77
2020/12/13 01:24:54;;;;;;;24.27;20.55;;;;;;;3.73;96.67;99728.72;5075856;28;20479;-78
2020/12/13 01:27:58;;;;;;;26.00;20.63;;;;;;;3.72;96.85;99729.69;5076138;28;20056;-78
2020/12/13 01:31:02;;;;;;;23.52;20.98;;;;;;;3.71;96.71;99728.84;5076057;28;20044;-78
2020/12/13 01:34:07;;;;;;;26.23;21.90;;;;;;;3.70;96.94;99736.94;5063339;28;20039;-78
2020/12/13 01:37:12;;;;;;;26.83;20.88;;;;;;;3.73;96.76;99728.72;5075687;28;20047;-77
2020/12/13 01:40:16;;;;;;;24.67;22.00;;;;;;;3.71;96.99;99735.94;5063379;28;20490;-79
2020/12/13 01:43:20;;;;;;;23.88;20.30;;;;;;;3.65;97.10;99731.94;5075487;28;20052;-78
2020/12/13 01:46:25;;;;;;;22.65;19.38;;;;;;;3.67;97.31;99748.59;5062657;28;20064;-78
2020/12/13 01:49:34;;;;;;;21.60;19.30;;;;;;;3.55;97.16;99741.50;5075734;28;20490;-78
2020/12/13 01:52:49;;;;;;;20.42;18.08;;;;;;;3.49;97.15;99739.25;5075373;28;20059;-78
2020/12/13 01:55:57;;;;;;;20.45;17.25;;;;;;;3.49;97.14;99739.25;5075618;28;20048;-78
2020/12/13 01:59:02;;;;;;;18.55;16.35;;;;;;;3.45;96.97;99748.38;5074745;28;20044;-78
2020/12/13 02:02:07;;;;;;;18.67;16.73;;;;;;;3.45;96.84;99751.03;5062364;28;20482;-78
2020/12/13 02:05:13;;;;;;;20.02;15.93;;;;;;;3.43;96.74;99752.94;5075250;28;20047;-78
2020/12/13 02:08:22;;;;;;;18.85;16.85;;;;;;;3.39;96.39;99748.78;5075160;28;20056;-78
2020/12/13 02:11:31;;;;;;;17.42;15.10;;;;;;;3.41;96.24;99746.06;5074882;28;20051;-78
2020/12/13 02:14:34;;;;;;;19.08;16.63;;;;;;;3.33;96.06;99749.22;5074936;28;20075;-78
2020/12/13 02:17:40;;;;;;;19.05;17.05;;;;;;;3.26;96.28;99748.75;5075045;28;20051;-75
2020/12/13 02:20:45;;;;;;;17.15;15.35;;;;;;;3.23;95.99;99745.50;5074662;28;20503;-78
2020/12/13 02:23:49;;;;;;;29.15;16.95;;;;;;;3.24;96.19;99755.97;5074799;28;20137;-78
2020/12/13 02:26:53;;;;;;;19.50;16.27;;;;;;;3.28;96.05;99757.47;5074347;28;20391;-78
2020/12/13 02:29:58;;;;;;;17.77;15.82;;;;;;;3.18;96.11;99752.91;5074923;28;20051;-78
2020/12/13 02:33:02;;;;;;;18.75;16.42;;;;;;;3.16;96.08;99752.97;5062140;28;20043;-78
2020/12/13 02:36:07;;;;;;;18.40;15.45;;;;;;;3.12;96.28;99758.59;5073470;28;20056;-78
2020/12/13 02:39:11;;;;;;;17.55;15.65;;;;;;;3.17;96.14;99760.00;5061898;28;20498;-78
2020/12/13 02:42:14;;;;;;;;;;;;;;;3.12;95.90;99759.47;5057122;28;20372;-77
2020/12/13 02:45:18;;;;;;;18.20;15.05;;;;;;;3.08;95.93;99765.06;5062337;28;19916;-77
2020/12/13 02:48:23;;;;;;;15.90;14.25;;;;;;;3.09;95.94;99767.63;5067312;28;20051;-77
2020/12/13 02:51:28;;;;;;;16.02;14.32;;;;;;;3.10;95.93;99774.63;5054351;28;20044;-78
2020/12/13 02:54:32;;;;;;;16.85;15.05;;;;;;;3.07;95.83;99768.66;5067121;28;20051;-77
2020/12/13 02:57:40;;;;;;;15.43;13.73;;;;;;;3.06;95.79;99780.25;5073765;28;20509;-78
2020/12/13 03:00:44;;;;;;;17.38;15.00;;;;;;;3.02;95.86;99770.78;5074160;28;20047;-78
2020/12/13 03:03:48;;;;;;;17.67;14.25;;;;;;;3.02;95.98;99774.28;5052555;28;20060;-77
2020/12/13 03:06:54;;;;;;;17.30;14.48;;;;;;;3.08;95.69;99780.97;5055541;28;20079;-78
2020/12/13 03:09:58;;;;;;;16.13;13.55;;;;;;;3.03;95.60;99772.47;5061456;28;20115;-78
2020/12/13 03:13:02;;;;;;;16.63;14.68;;;;;;;2.99;95.75;99781.56;5073956;28;20056;-77
2020/12/13 03:16:07;;;;;;;15.70;12.98;;;;;;;2.96;95.72;99787.91;5073968;28;20048;-78
2020/12/13 03:19:11;;;;;;;16.23;14.48;;;;;;;2.95;95.59;99778.28;5056613;28;20047;-77
2020/12/13 03:22:15;;;;;;;16.92;14.07;;;;;;;3.01;95.66;99772.56;5053839;28;20072;-78
2020/12/13 03:25:19;;;;;;;16.42;13.95;;;;;;;2.94;95.54;99773.91;5053790;28;20063;-77
2020/12/13 03:28:24;;;;;;;15.93;14.00;;;;;;;2.90;95.48;99775.09;5053773;28;20051;-77
2020/12/13 03:31:29;;;;;;;15.45;13.32;;;;;;;2.88;95.44;99779.66;5063191;28;20051;-77
2020/12/13 03:34:34;;;;;;;15.38;13.77;;;;;;;2.92;95.65;99785.56;5060638;28;20048;-77
2020/12/13 03:37:38;;;;;;;15.88;14.18;;;;;;;2.89;95.82;99777.84;5053302;28;20048;-78
2020/12/13 03:40:43;;;;;;;17.48;13.77;;;;;;;2.90;95.75;99788.34;5041144;28;20044;-77
2020/12/13 03:43:47;;;;;;;16.42;13.80;;;;;;;2.93;95.85;99782.84;5041358;28;20060;-78
2020/12/13 03:46:51;;;;;;;13.57;12.18;;;;;;;2.97;95.73;99784.34;5053569;28;20052;-78
2020/12/13 03:49:55;;;;;;;13.85;12.20;;;;;;;2.98;95.57;99791.34;5056876;28;20056;-77
2020/12/13 03:53:00;;;;;;;14.07;11.38;;;;;;;2.95;95.29;99785.38;5067845;28;20056;-78
2020/12/13 03:56:03;;;;;;;;;;;;;;;2.87;95.50;99796.47;5053799;28;20505;-78
2020/12/13 03:59:07;;;;;;;13.80;11.77;;;;;;;2.86;95.43;99800.09;5053809;28;19917;-78
2020/12/13 04:02:11;;;;;;;;;;;;;;;2.80;95.69;99803.13;5053917;28;20048;-78
2020/12/13 04:05:15;;;;;;;13.80;12.07;;;;;;;2.76;95.60;99801.66;5052802;28;19916;-78
2020/12/13 04:08:20;;;;;;;14.15;12.63;;;;;;;2.82;95.53;99811.84;5053543;28;20056;-76
2020/12/13 04:11:24;;;;;;;13.68;12.18;;;;;;;2.80;95.43;99802.28;5069929;28;20055;-78
2020/12/13 04:14:28;;;;;;;13.98;11.95;;;;;;;2.80;95.18;99799.63;5053428;28;20120;-76
2020/12/13 04:17:33;;;;;;;13.02;11.50;;;;;;;2.80;95.32;99807.59;5041335;28;20048;-77
2020/12/13 04:20:37;;;;;;;13.43;11.68;;;;;;;2.75;95.13;99804.38;5053085;28;20048;-76
2020/12/13 04:23:41;;;;;;;12.25;10.95;;;;;;;2.78;95.06;99810.34;5046447;28;20043;-79
2020/12/13 04:26:46;;;;;;;12.23;10.68;;;;;;;2.69;95.17;99813.59;5076693;28;20391;-77
2020/12/13 04:29:50;;;;;;;12.63;11.10;;;;;;;2.69;94.90;99823.34;5072090;28;20513;-78
2020/12/13 04:32:54;;;;;;;11.77;10.30;;;;;;;2.68;95.22;99821.63;5067679;28;20060;-79
2020/12/13 04:35:58;;;;;;;13.55;11.38;;;;;;;2.80;94.86;99827.00;5074565;28;20048;-76
2020/12/13 04:39:03;;;;;;;11.38;10.18;;;;;;;2.73;94.72;99823.03;5058561;28;20371;-78
2020/12/13 04:42:08;;;;;;;12.05;9.90;;;;;;;2.71;94.92;99830.25;5056769;28;20064;-78
2020/12/13 04:45:12;;;;;;;12.27;10.38;;;;;;;2.68;94.81;99838.38;5056648;28;20056;-78
2020/12/13 04:48:17;;;;;;;10.68;9.55;;;;;;;2.73;95.00;99844.22;5056683;28;20044;-78
2020/12/13 04:51:25;;;;;;;12.50;10.60;;;;;;;2.68;94.91;99830.44;5058208;28;20395;-77
2020/12/13 04:54:30;;;;;;;11.23;10.00;;;;;;;2.70;94.85;99820.56;5066117;28;20120;-78
2020/12/13 04:57:35;;;;;;;13.00;9.73;;;;;;;2.69;94.92;99828.63;5076242;28;20071;-78
2020/12/13 05:00:44;;;;;;;13.05;10.10;;;;;;;2.67;94.94;99834.00;5058228;28;20064;-77
2020/12/13 05:03:48;;;;;;;11.70;9.65;;;;;;;2.69;94.76;99840.09;5056605;28;20498;-78
2020/12/13 05:06:53;;;;;;;11.45;9.30;;;;;;;2.63;94.76;99846.63;5056396;28;20048;-77
2020/12/13 05:09:58;;;;;;;11.63;9.55;;;;;;;2.69;94.61;99853.34;5056383;28;20052;-78
2020/12/13 05:13:01;;;;;;;10.48;9.35;;;;;;;2.62;94.83;99852.00;5059849;28;20051;-79
2020/12/13 05:16:06;;;;;;;;;;;;;;;2.61;94.67;99861.78;5056703;28;20060;-77
2020/12/13 05:19:12;;;;;;;10.02;8.63;;;;;;;2.64;94.68;99861.56;5056250;28;19920;-78
2020/12/13 05:22:20;;;;;;;11.05;9.82;;;;;;;2.62;94.64;99867.91;5058901;28;20051;-78
2020/12/13 05:25:43;;;;;;;9.95;8.95;;;;;;;2.60;94.46;99867.16;5075999;28;20047;-79
2020/12/13 05:28:50;;;;;;;10.75;9.65;;;;;;;2.61;94.39;99875.00;5076304;28;20486;-78
2020/12/13 05:31:54;;;;;;;13.43;10.02;;;;;;;2.54;94.43;99875.50;5060240;28;20047;-79
2020/12/13 05:34:58;;;;;;;11.10;9.77;;;;;;;2.53;94.45;99879.94;5055928;28;20048;-77
2020/12/13 05:38:14;;;;;;;12.90;9.70;;;;;;;2.52;94.07;99896.75;5054913;28;20047;-78
2020/12/13 05:41:18;;;;;;;9.80;8.80;;;;;;;2.43;94.18;99899.13;5058235;28;20048;-78
2020/12/13 05:54:31;;;;;;;10.10;8.87;;;;;;;2.40;94.79;99909.91;5061388;28;20052;-78
2020/12/13 05:57:37;;;;;;;11.57;9.70;;;;;;;2.32;94.73;99910.38;5070173;28;20278;-78
2020/12/13 06:00:41;;;;;;;12.60;10.70;;;;;;;2.35;94.91;99925.22;5044230;28;20361;-78
2020/12/13 06:03:50;;;;;;;13.13;11.52;;;;;;;2.29;94.90;99929.13;5075249;28;20039;-78
2020/12/13 06:07:00;;;;;;;14.00;11.63;;;;;;;2.23;94.95;99918.03;5069584;28;20044;-78
2020/12/13 06:10:05;;;;;;;13.07;11.50;;;;;;;2.30;95.19;99924.66;5055163;28;20060;-79
2020/12/13 06:13:17;;;;;;;12.73;11.43;;;;;;;2.29;95.44;99934.41;5055083;28;20056;-79
2020/12/13 06:16:23;;;;;;;14.38;11.98;;;;;;;2.27;95.88;99924.88;5062069;28;20071;-78
2020/12/13 06:19:32;;;;;;;14.77;12.75;;;;;;;2.26;95.68;99939.91;5074661;28;20051;-78
2020/12/13 06:22:37;;;;;;;14.27;12.05;;;;;;;2.27;95.59;99935.47;5042705;28;20376;-78
2020/12/13 06:25:41;;;;;;;14.82;11.90;;;;;;;2.21;95.76;99930.50;5042599;28;20052;-76
2020/12/13 06:28:46;;;;;;;15.30;12.23;;;;;;;2.20;95.71;99934.13;5054929;28;20048;-78
2020/12/13 06:32:00;;;;;;;13.55;11.68;;;;;;;2.19;95.74;99943.84;5072906;28;20060;-77
2020/12/13 06:35:04;;;;;;;;;;;;;;;2.15;95.67;99944.97;5065225;28;20048;-79
2020/12/13 06:38:17;;;;;;;14.27;12.38;;;;;;;2.11;95.52;99945.25;5055482;28;19916;-79
2020/12/13 06:41:23;;;;;;;;;;;;;;;2.14;95.73;99955.66;5075006;28;20053;-78
2020/12/13 06:44:28;;;;;;;14.48;11.93;;;;;;;2.09;95.79;99958.59;5062201;28;19917;-78
2020/12/13 06:47:32;;;;;;;15.25;12.65;;;;;;;2.09;95.52;99970.97;5069444;28;20490;-78
2020/12/13 06:50:37;;;;;;;15.63;13.00;;;;;;;2.04;95.69;99965.09;5074715;28;20055;-78
2020/12/13 06:53:41;;;;;;;14.93;12.82;;;;;;;2.05;95.11;99964.16;5073943;28;20478;-78
2020/12/13 06:56:47;;;;;;;16.20;12.73;;;;;;;2.09;95.97;99963.88;5064243;28;20059;-78
2020/12/13 06:59:55;;;;;;;17.17;13.15;;;;;;;2.13;95.55;99968.03;5057225;28;20048;-78
2020/12/13 07:03:00;;;;;;;17.05;12.55;;;;;;;2.21;95.73;99973.72;5054284;28;20055;-77
2020/12/13 07:06:06;;;;;;;16.50;13.32;;;;;;;2.38;95.45;99981.53;5067150;28;20063;-77
2020/12/13 07:09:14;;;;;;;15.88;13.10;;;;;;;2.46;95.03;99973.09;5062002;28;20478;-77
2020/12/13 07:12:18;;;;;;;13.70;11.27;;;;;;;2.59;94.54;99985.50;5055610;28;20055;-78
2020/12/13 07:15:33;;;;;;;14.88;11.50;;;;;;;2.79;94.19;99992.22;5057480;28;20052;-78
2020/12/13 07:18:44;;;;;;;11.15;9.65;;;;;;;3.47;92.63;99994.97;5071600;28;20048;-79
2020/12/13 07:21:48;;;;;;;12.32;9.57;;;;;;;3.94;89.91;99982.97;5054244;28;20048;-78
2020/12/13 07:24:53;;;;;;;9.95;8.10;;;;;;;4.33;88.07;99983.88;5068126;28;20075;-78
2020/12/13 07:27:58;;;;;;;7.93;6.90;;;;;;;5.03;84.98;99971.84;5073684;28;20043;-77
2020/12/13 07:31:05;;;;;;;7.43;6.18;;;;;;;5.76;81.03;99984.19;5069879;28;20046;-78
2020/12/13 07:34:09;;;;;;;6.95;6.22;;;;;;;6.92;76.48;99986.84;5044265;28;20067;-78
2020/12/13 07:37:14;;;;;;;;;;;;;;;8.39;69.83;99984.44;5054460;28;20048;-78
2020/12/13 07:40:19;;;;;;;7.93;5.80;;;;;;;9.75;63.69;99971.53;5069787;28;19916;-78
2020/12/13 07:43:24;;;;;;;9.40;5.20;;;;;;;10.41;60.42;99978.78;5057220;28;20044;-79
2020/12/13 07:46:30;;;;;;;5.88;4.85;;;;;;;10.95;58.41;99983.47;5065785;28;20051;-80
2020/12/13 07:49:35;;;;;;;8.55;5.70;;;;;;;11.67;55.56;99978.19;5071854;28;20052;-79
2020/12/13 07:52:44;;;;;;;5.85;4.55;;;;;;;12.38;53.52;99983.63;5053240;28;20044;-79
2020/12/13 07:55:48;;;;;;;6.03;4.88;;;;;;;12.94;51.92;99985.91;5065875;28;20044;-77
2020/12/13 07:59:12;;;;;;;7.63;5.30;;;;;;;12.95;50.95;99998.38;5072830;28;20055;-77
2020/12/13 08:02:18;;;;;;;6.00;4.40;;;;;;;13.43;49.46;100003.25;5062698;28;20051;-78
2020/12/13 08:05:26;;;;;;;5.93;4.75;;;;;;;14.07;47.78;99995.34;5044888;28;20114;-79
2020/12/13 08:08:42;;;;;;;5.88;4.47;;;;;;;15.83;44.10;100006.13;5056791;28;20056;-81
2020/12/13 08:11:47;;;;;;;5.38;4.20;;;;;;;16.67;41.51;100007.97;5057061;28;20048;-80
2020/12/13 08:14:51;;;;;;;70.38;52.35;;;;;;;17.74;40.24;100004.88;5064173;28;20048;-79
2020/12/13 08:18:10;;;;;;;26.55;20.50;;;;;;;18.22;38.50;100011.53;5064620;28;20040;-80
2020/12/13 08:21:32;;;;;;;11.75;9.70;;;;;;;18.84;37.12;100012.56;5056958;28;20049;-79
2020/12/13 08:24:38;;;;;;;5.32;4.38;;;;;;;19.79;35.42;100010.97;5056422;28;20598;-79
2020/12/13 08:27:43;;;;;;;5.18;4.20;;;;;;;20.29;34.93;100017.06;5064040;28;20529;-78
2020/12/13 08:30:49;;;;;;;5.57;4.20;;;;;;;21.22;33.09;100028.75;5074022;28;20056;-77
2020/12/13 08:34:01;;;;;;;6.45;3.83;;;;;;;20.00;34.67;100032.63;5076281;28;20509;-80
2020/12/13 08:37:06;;;;;;;4.47;3.80;;;;;;;19.37;36.27;100032.91;5065929;28;20064;-78
2020/12/13 08:40:10;;;;;;;5.38;3.83;;;;;;;19.68;36.15;100030.59;5055068;28;20059;-79
2020/12/13 08:43:18;;;;;;;5.57;3.88;;;;;;;21.05;33.61;100035.66;5076402;28;20044;-79
2020/12/13 08:46:32;;;;;;;4.97;3.50;;;;;;;24.57;28.25;100041.69;5044584;28;20515;-78
2020/12/13 08:49:39;;;;;;;6.43;4.00;;;;;;;26.70;25.72;100039.28;5056336;28;20048;-78
2020/12/13 08:52:43;;;;;;;8.70;4.30;;;;;;;27.71;23.97;100048.22;5055900;28;20060;-79
2020/12/13 08:56:07;;;;;;;7.88;3.70;;;;;;;28.43;23.06;100047.25;5073355;28;20052;-77
2020/12/13 08:59:19;;;;;;;9.02;4.15;;;;;;;28.87;24.11;100062.69;5055934;28;20049;-79
2020/12/13 09:02:23;;;;;;;15.40;4.13;;;;;;;28.83;23.95;100065.16;5073594;28;20052;-79
2020/12/13 09:05:30;;;;;;;19.85;5.40;;;;;;;28.00;24.20;100067.41;5062935;28;20064;-80
2020/12/13 09:08:34;;;;;;;4.97;3.63;;;;;;;27.68;23.68;100068.03;5075582;28;20044;-80
2020/12/13 09:11:40;;;;;;;3.78;2.70;;;;;;;27.08;24.44;100078.84;5062328;28;20056;-80
2020/12/13 09:14:45;;;;;;;3.28;2.30;;;;;;;27.17;24.67;100076.53;5075090;28;20067;-77
2020/12/13 09:18:04;;;;;;;3.60;2.42;;;;;;;24.42;28.20;100087.91;5063225;28;20040;-79
2020/12/13 09:21:08;;;;;;;3.55;2.38;;;;;;;20.05;34.69;100102.88;5075742;28;20391;-79
2020/12/13 09:24:14;;;;;;;3.10;2.50;;;;;;;18.03;38.70;100108.88;5075464;28;20051;-79
2020/12/13 09:27:19;;;;;;;5.30;2.42;;;;;;;16.17;43.16;100120.34;5075351;28;20052;-79
2020/12/13 09:30:23;;;;;;;7.80;2.60;;;;;;;15.55;45.58;100129.38;5064186;28;20415;-80
2020/12/13 09:33:28;;;;;;;7.43;2.65;;;;;;;15.13;47.04;100129.56;5061689;28;20056;-79
2020/12/13 09:36:32;;;;;;;3.80;2.58;;;;;;;14.34;48.79;100124.69;5055956;28;20052;-80
2020/12/13 09:39:37;;;;;;;5.22;2.28;;;;;;;14.06;50.03;100127.75;5055165;28;20048;-81
2020/12/13 09:42:41;;;;;;;3.88;2.42;;;;;;;13.59;51.71;100143.53;5054868;28;20505;-79
2020/12/13 09:45:45;;;;;;;4.03;2.72;;;;;;;13.23;53.38;100142.78;5055037;28;20056;-80
2020/12/13 09:48:49;;;;;;;4.03;2.55;;;;;;;13.03;54.92;100143.94;5042833;28;20071;-79
2020/12/13 09:51:58;;;;;;;5.90;2.78;;;;;;;12.65;55.38;100149.63;5054965;28;20044;-79
2020/12/13 09:55:03;;;;;;;5.78;2.88;;;;;;;12.34;57.26;100144.56;5051077;28;20514;-80
2020/12/13 09:58:07;;;;;;;5.93;3.10;;;;;;;12.16;57.63;100143.72;5054459;28;20044;-80
2020/12/13 10:01:13;;;;;;;4.38;2.97;;;;;;;12.08;56.31;100138.22;5064325;28;20411;-81
2020/12/13 10:04:19;;;;;;;5.65;3.83;;;;;;;12.07;57.68;100138.38;5074246;28;20399;-80
2020/12/13 10:10:54;;;;;;;4.95;3.92;;;;;;;12.02;58.90;100151.44;5062092;28;20048;-80
2020/12/13 10:13:58;;;;;;;5.63;3.60;;;;;;;11.93;58.98;100147.78;5074412;28;20056;-80
2020/12/13 10:17:04;;;;;;;6.75;3.40;;;;;;;11.74;59.12;100161.31;5074246;28;20059;-81
2020/12/13 10:20:08;;;;;;;5.05;3.53;;;;;;;11.60;60.71;100149.13;5074223;28;20494;-79
2020/12/13 10:23:13;;;;;;;4.03;2.92;;;;;;;11.64;60.97;100155.06;5074137;28;20106;-80
2020/12/13 10:26:17;;;;;;;4.57;3.38;;;;;;;11.42;60.67;100153.59;5061688;28;20056;-80
2020/12/13 10:29:21;;;;;;;4.55;3.30;;;;;;;11.35;60.39;100160.53;5074389;28;20523;-80
2020/12/13 10:32:26;;;;;;;4.20;3.35;;;;;;;11.32;60.85;100146.53;5061702;28;20067;-80
2020/12/13 10:35:30;;;;;;;4.97;3.95;;;;;;;11.22;61.03;100145.69;5073918;28;20415;-80
2020/12/13 10:38:35;;;;;;;4.72;4.18;;;;;;;11.22;61.29;100149.22;5073826;28;20051;-80
2020/12/13 10:41:39;;;;;;;6.88;4.75;;;;;;;11.10;60.91;100145.84;5061645;28;20498;-79
2020/12/13 10:44:43;;;;;;;6.97;5.75;;;;;;;11.09;61.94;100140.63;5065409;28;20071;-80
2020/12/13 10:47:47;;;;;;;7.90;6.38;;;;;;;10.91;61.92;100143.16;5065310;28;20047;-79
2020/12/13 10:50:52;;;;;;;7.90;6.00;;;;;;;10.96;62.37;100145.44;5057875;28;20091;-79
2020/12/13 10:53:57;;;;;;;5.97;5.32;;;;;;;10.82;62.91;100130.59;5059358;28;20080;-80
2020/12/13 10:57:02;;;;;;;12.95;9.73;;;;;;;10.61;62.82;100121.84;5073738;28;20051;-79
2020/12/13 11:00:06;;;;;;;10.88;9.60;;;;;;;10.54;63.76;100128.78;5061556;28;20056;-80
2020/12/13 11:03:11;;;;;;;11.32;9.35;;;;;;;10.40;64.35;100129.16;5073465;28;20049;-80
2020/12/13 11:06:15;;;;;;;11.30;9.35;;;;;;;10.31;65.10;100130.84;5053746;28;20056;-80
2020/12/13 11:09:19;;;;;;;10.20;8.38;;;;;;;10.40;65.21;100135.38;5065296;28;20043;-81
2020/12/13 11:12:24;;;;;;;10.63;8.23;;;;;;;10.44;65.31;100130.59;5061063;28;20059;-80
2020/12/13 11:15:28;;;;;;;10.68;8.95;;;;;;;10.50;65.52;100127.34;5071376;28;20502;-79
2020/12/13 11:18:34;;;;;;;12.05;9.40;;;;;;;10.45;65.57;100121.53;5053108;28;20128;-80
2020/12/13 11:21:44;;;;;;;10.63;9.52;;;;;;;10.42;65.18;100127.19;5053240;28;20510;-80
2020/12/13 11:24:48;;;;;;;11.73;10.38;;;;;;;10.40;65.36;100134.53;5040654;28;20059;-82
2020/12/13 11:27:52;;;;;;;12.60;10.63;;;;;;;10.27;66.13;100117.84;5055845;28;20483;-81
2020/12/13 11:30:57;;;;;;;15.23;11.73;;;;;;;10.18;65.57;100114.16;5073274;28;20032;-80
2020/12/13 11:34:00;;;;;;;;;;;;;;;10.11;65.74;100123.72;5073449;28;20483;-79
2020/12/13 11:37:05;;;;;;;14.23;12.75;;;;;;;10.12;66.46;100120.06;5065685;28;19916;-79
2020/12/13 11:40:10;;;;;;;14.93;13.18;;;;;;;10.04;66.48;100116.34;5065723;28;20396;-78
2020/12/13 11:43:14;;;;;;;15.30;13.30;;;;;;;10.10;66.77;100118.47;5053225;28;20033;-81
2020/12/13 11:46:19;;;;;;;17.25;13.98;;;;;;;10.08;66.27;100123.13;5052724;28;20049;-80
2020/12/13 11:49:23;;;;;;;15.25;13.00;;;;;;;10.09;65.64;100119.47;5059331;28;20049;-80
2020/12/13 11:52:27;;;;;;;14.07;11.98;;;;;;;10.09;66.16;100111.41;5072870;28;20040;-79
2020/12/13 11:55:32;;;;;;;13.52;12.07;;;;;;;10.05;66.89;100120.75;5072940;28;20040;-79
2020/12/13 11:58:36;;;;;;;15.63;12.68;;;;;;;9.97;66.93;100116.06;5073196;28;20032;-80
2020/12/13 12:01:44;;;;;;;13.75;12.32;;;;;;;9.90;67.05;100114.88;5068224;28;20055;-79
2020/12/13 12:04:48;;;;;;;14.40;12.70;;;;;;;9.80;67.42;100109.50;5040314;28;20048;-84
2020/12/13 12:07:54;;;;;;;14.57;12.77;;;;;;;9.85;68.10;100117.13;5067350;28;20071;-77
2020/12/13 12:10:58;;;;;;;14.95;13.27;;;;;;;9.78;68.12;100126.69;5073632;28;20047;-78
2020/12/13 12:14:02;;;;;;;17.25;14.30;;;;;;;9.82;67.74;100117.41;5061244;28;20142;-78
2020/12/13 12:17:07;;;;;;;17.67;14.60;;;;;;;9.73;67.89;100113.69;5073539;28;20426;-78
2020/12/13 12:20:15;;;;;;;20.90;18.00;;;;;;;9.70;68.26;100110.47;5069692;28;20600;-79
2020/12/13 12:23:19;;;;;;;24.90;20.17;;;;;;;9.65;68.26;100105.47;5064701;28;20052;-78
2020/12/13 12:26:32;;;;;;;24.75;21.33;;;;;;;9.68;68.99;100113.25;5071110;28;20052;-79
2020/12/13 12:29:37;;;;;;;24.87;22.03;;;;;;;9.55;69.36;100117.16;5048292;28;20059;-78
2020/12/13 12:32:41;;;;;;;25.63;22.42;;;;;;;9.54;69.11;100118.13;5072673;28;20282;-78
2020/12/13 12:35:46;;;;;;;26.83;23.02;;;;;;;9.55;70.01;100123.38;5072207;28;20055;-78
2020/12/13 12:38:51;;;;;;;25.60;22.73;;;;;;;9.53;69.82;100117.28;5072823;28;20510;-77
2020/12/13 12:41:55;;;;;;;30.52;25.25;;;;;;;9.45;69.71;100124.28;5073276;28;20479;-78
2020/12/13 12:44:59;;;;;;;30.30;26.17;;;;;;;9.39;69.50;100117.63;5073151;28;20051;-77
2020/12/13 12:48:05;;;;;;;32.80;27.02;;;;;;;9.29;68.90;100106.00;5076655;28;20048;-78
2020/12/13 12:51:11;;;;;;;32.60;25.75;;;;;;;9.18;69.34;100114.97;5076699;28;20055;-77
2020/12/13 12:54:17;;;;;;;34.28;27.17;;;;;;;9.27;68.65;100116.03;5076874;28;20409;-77
2020/12/13 12:57:22;;;;;;;33.83;28.45;;;;;;;9.13;69.90;100117.19;5075995;28;20055;-78
2020/12/13 13:03:32;;;;;;;33.53;27.33;;;;;;;9.22;69.55;100128.09;5076787;28;20051;-77
2020/12/13 13:10:07;;;;;;;34.15;29.83;;;;;;;9.29;69.88;100124.75;5076398;28;20482;-77
2020/12/13 13:13:11;;;;;;;29.08;25.92;;;;;;;9.31;70.38;100130.84;5076359;28;20495;-77
2020/12/13 13:16:18;;;;;;;28.52;24.75;;;;;;;9.25;71.60;100133.19;5076278;28;20052;-78
2020/12/13 13:19:22;;;;;;;28.58;25.42;;;;;;;9.28;71.62;100139.16;5076228;28;20060;-77
2020/12/13 13:22:27;;;;;;;29.50;25.88;;;;;;;9.26;71.85;100135.72;5076071;28;20048;-77
2020/12/13 13:25:31;;;;;;;30.45;27.15;;;;;;;9.21;71.95;100137.13;5075512;28;20071;-77
2020/12/13 13:28:37;;;;;;;30.25;26.75;;;;;;;9.12;72.19;100136.94;5076223;28;20047;-77
2020/12/13 13:31:42;;;;;;;32.05;28.08;;;;;;;9.16;71.94;100141.03;5070512;28;20605;-78
2020/12/13 13:34:46;;;;;;;36.88;31.95;;;;;;;9.12;72.08;100138.75;5063664;28;20494;-77
2020/12/13 13:37:52;;;;;;;40.10;35.03;;;;;;;9.08;71.47;100132.81;5045339;28;20056;-77
2020/12/13 13:40:56;;;;;;;41.00;36.28;;;;;;;9.03;70.92;100136.88;5055810;28;20044;-78
2020/12/13 13:44:08;;;;;;;41.13;36.35;;;;;;;9.12;70.39;100150.31;5055776;28;20052;-78
2020/12/13 13:50:17;;;;;;;44.00;36.75;;;;;;;8.99;70.60;100149.66;5075728;28;20043;-77
2020/12/13 13:53:22;;;;;;;42.58;37.55;;;;;;;8.93;70.83;100143.97;5075626;28;20052;-78
2020/12/13 13:56:40;;;;;;;43.83;37.70;;;;;;;9.01;71.25;100154.88;5061105;28;20044;-77
2020/12/13 13:59:44;;;;;;;51.53;41.53;;;;;;;8.96;72.44;100157.94;5055747;28;20044;-78
2020/12/13 14:02:49;;;;;;;46.65;38.95;;;;;;;8.99;71.98;100152.31;5070747;28;20094;-77
2020/12/13 14:05:57;;;;;;;43.38;37.45;;;;;;;8.98;72.34;100155.16;5059843;28;20052;-77
2020/12/13 14:09:01;;;;;;;46.10;40.33;;;;;;;8.97;73.14;100156.97;5058325;28;20056;-78
2020/12/13 14:12:06;;;;;;;43.03;38.25;;;;;;;9.07;72.99;100167.75;5059597;28;20052;-77
2020/12/13 14:15:10;;;;;;;44.38;39.47;;;;;;;8.98;72.41;100163.19;5061453;28;20047;-77
2020/12/13 14:18:14;;;;;;;46.35;40.75;;;;;;;8.84;72.44;100166.16;5072085;28;20509;-78
2020/12/13 14:21:19;;;;;;;45.28;39.75;;;;;;;8.94;72.71;100183.97;5055641;28;20067;-80
2020/12/13 14:24:23;;;;;;;44.22;38.67;;;;;;;9.00;72.88;100183.47;5055384;28;20067;-80
2020/12/13 14:27:27;;;;;;;44.15;39.35;;;;;;;8.96;72.91;100179.34;5057067;28;20515;-79
2020/12/13 14:30:32;;;;;;;44.53;39.78;;;;;;;9.07;72.67;100175.78;5065632;28;20046;-79
2020/12/13 14:33:39;;;;;;;44.17;39.25;;;;;;;9.03;72.35;100177.03;5054889;28;20048;-79
2020/12/13 14:36:45;;;;;;;45.08;40.15;;;;;;;8.84;72.66;100176.88;5059088;28;20043;-78
2020/12/13 14:39:49;;;;;;;44.65;39.78;;;;;;;8.92;72.87;100193.13;5044812;28;20048;-80
2020/12/13 14:42:54;;;;;;;43.80;38.90;;;;;;;8.80;72.51;100192.31;5056453;28;20048;-80
2020/12/13 14:45:58;;;;;;;46.17;41.22;;;;;;;8.77;72.97;100194.38;5049151;28;20072;-79
2020/12/13 14:49:04;;;;;;;51.15;40.30;;;;;;;8.77;72.86;100197.94;5063306;28;20044;-81